Terminal Aerodrome Forecast
Issued by NWS Twin Cities, MN

Home | Current Version | Previous Version | Text Only | Print | Product List | Glossary Off
Versions: 1 2 3 4 5 6 7 8 9 10 11 12 13 14 15 16 17

000
FTUS43 KMPX 031237 AAA
TAFEAU
TAF AMD
KEAU 031237Z 0313/0412 23005KT P6SM SKC
     FM032100 25008KT P6SM SCT050 BKN070
     FM040300 26003KT P6SM SCT070
     FM040900 VRB02KT 3SM BR SKC=

USA.gov is the U.S. government's official web portal to all federal, state and local government web resources and services.